Terminal Aerodrome Forecast
Issued by NWS Northern Indiana

Home | Current Version | Previous Version | Text Only | Print | Product List | Glossary Off
Versions: 1 2 3 4 5 6 7 8 9 10 11 12 13 14 15 16

000
FTUS43 KIWX 300500
TAFFWA
TAF
KFWA 300528Z 3006/3106 31012KT 6SM -SHSN BR OVC035
     FM300730 31017G24KT 6SM -SHSN OVC030
      TEMPO 3008/3010 4SM -SHSN
     FM301500 33012KT P6SM BKN035
     FM302300 29006KT P6SM SCT030=

USA.gov is the U.S. government's official web portal to all federal, state and local government web resources and services.